sensor_id;sensor_type;location;lat;lon;timestamp;pressure;altitude;pressure_sealevel;temperature;humidity
43488;BME280;29078;41.932;25.554;2022-11-30T00:02:06;99736.09;;;7.44;78.38
43488;BME280;29078;41.932;25.554;2022-11-30T00:04:32;99801.22;;;7.58;78.37
43488;BME280;29078;41.932;25.554;2022-11-30T00:06:57;99749.16;;;7.53;78.90
43488;BME280;29078;41.932;25.554;2022-11-30T00:09:23;99775.47;;;7.61;78.46
43488;BME280;29078;41.932;25.554;2022-11-30T00:11:48;99803.28;;;7.90;78.38
43488;BME280;29078;41.932;25.554;2022-11-30T00:14:14;99738.28;;;7.48;78.72
43488;BME280;29078;41.932;25.554;2022-11-30T00:16:39;99767.97;;;7.67;78.96
43488;BME280;29078;41.932;25.554;2022-11-30T00:19:04;99799.28;;;7.86;78.60
43488;BME280;29078;41.932;25.554;2022-11-30T00:21:30;99796.72;;;7.94;78.86
43488;BME280;29078;41.932;25.554;2022-11-30T00:23:55;99745.44;;;7.64;78.59
43488;BME280;29078;41.932;25.554;2022-11-30T00:26:21;99767.69;;;7.78;78.44
43488;BME280;29078;41.932;25.554;2022-11-30T00:28:47;99786.63;;;7.81;78.78
43488;BME280;29078;41.932;25.554;2022-11-30T00:31:15;99852.41;;;8.33;78.54
43488;BME280;29078;41.932;25.554;2022-11-30T00:33:41;99708.69;;;7.46;78.95
43488;BME280;29078;41.932;25.554;2022-11-30T00:36:14;99799.88;;;7.97;78.54
43488;BME280;29078;41.932;25.554;2022-11-30T00:38:40;99816.19;;;8.09;78.92
43488;BME280;29078;41.932;25.554;2022-11-30T00:41:06;99853.59;;;8.39;78.44
43488;BME280;29078;41.932;25.554;2022-11-30T00:43:32;99712.06;;;7.56;78.65
43488;BME280;29078;41.932;25.554;2022-11-30T00:45:57;99722.31;;;7.68;78.35
43488;BME280;29078;41.932;25.554;2022-11-30T00:48:23;99787.22;;;8.01;79.05
43488;BME280;29078;41.932;25.554;2022-11-30T00:50:49;99743.69;;;7.73;78.71
43488;BME280;29078;41.932;25.554;2022-11-30T00:53:15;99839.38;;;8.32;78.60
43488;BME280;29078;41.932;25.554;2022-11-30T00:55:42;99704.63;;;7.52;78.78
43488;BME280;29078;41.932;25.554;2022-11-30T00:58:08;99833.59;;;8.28;78.70
43488;BME280;29078;41.932;25.554;2022-11-30T01:00:34;99843.41;;;8.44;78.63
43488;BME280;29078;41.932;25.554;2022-11-30T01:02:59;99746.41;;;7.89;78.66
43488;BME280;29078;41.932;25.554;2022-11-30T01:05:25;99793.19;;;8.11;78.29
43488;BME280;29078;41.932;25.554;2022-11-30T01:07:50;99723.75;;;7.62;78.26
43488;BME280;29078;41.932;25.554;2022-11-30T01:10:16;99709.22;;;7.76;78.22
43488;BME280;29078;41.932;25.554;2022-11-30T01:12:41;99802.53;;;8.32;78.34
43488;BME280;29078;41.932;25.554;2022-11-30T01:15:07;99838.53;;;8.57;78.38
43488;BME280;29078;41.932;25.554;2022-11-30T01:17:33;99814.31;;;8.45;78.25
43488;BME280;29078;41.932;25.554;2022-11-30T01:19:59;99816.75;;;8.39;78.34
43488;BME280;29078;41.932;25.554;2022-11-30T01:22:24;99761.97;;;8.08;78.23
43488;BME280;29078;41.932;25.554;2022-11-30T01:24:50;99852.38;;;8.59;78.10
43488;BME280;29078;41.932;25.554;2022-11-30T01:27:15;99781.81;;;8.28;78.51
43488;BME280;29078;41.932;25.554;2022-11-30T01:29:40;99709.25;;;7.84;78.20
43488;BME280;29078;41.932;25.554;2022-11-30T01:32:06;99719.06;;;7.74;78.26
43488;BME280;29078;41.932;25.554;2022-11-30T01:34:31;99767.72;;;8.12;78.52
43488;BME280;29078;41.932;25.554;2022-11-30T01:36:57;99757.63;;;7.99;78.13
43488;BME280;29078;41.932;25.554;2022-11-30T01:39:22;99785.22;;;8.21;78.13
43488;BME280;29078;41.932;25.554;2022-11-30T01:41:47;99715.66;;;7.81;78.06
43488;BME280;29078;41.932;25.554;2022-11-30T01:46:53;99758.31;;;8.01;78.31
43488;BME280;29078;41.932;25.554;2022-11-30T01:49:30;99831.59;;;8.48;77.99
43488;BME280;29078;41.932;25.554;2022-11-30T01:52:02;99838.69;;;8.55;78.04
43488;BME280;29078;41.932;25.554;2022-11-30T01:54:46;99768.09;;;8.17;77.62
43488;BME280;29078;41.932;25.554;2022-11-30T01:57:25;99777.28;;;8.13;77.76
43488;BME280;29078;41.932;25.554;2022-11-30T01:59:53;99789.00;;;8.18;77.20
43488;BME280;29078;41.932;25.554;2022-11-30T02:02:27;99726.00;;;7.83;77.34
43488;BME280;29078;41.932;25.554;2022-11-30T02:04:55;99710.44;;;7.63;77.10
43488;BME280;29078;41.932;25.554;2022-11-30T02:07:20;99787.28;;;8.09;77.41
43488;BME280;29078;41.932;25.554;2022-11-30T02:09:46;99797.13;;;8.07;77.51
43488;BME280;29078;41.932;25.554;2022-11-30T02:12:22;99806.63;;;8.26;77.63
43488;BME280;29078;41.932;25.554;2022-11-30T02:14:53;99647.47;;;7.28;77.38
43488;BME280;29078;41.932;25.554;2022-11-30T02:17:38;99835.53;;;8.44;77.36
43488;BME280;29078;41.932;25.554;2022-11-30T02:20:26;99839.13;;;8.43;77.40
43488;BME280;29078;41.932;25.554;2022-11-30T02:31:07;99741.31;;;7.87;77.44
43488;BME280;29078;41.932;25.554;2022-11-30T02:33:36;99720.38;;;7.78;76.96
43488;BME280;29078;41.932;25.554;2022-11-30T02:36:05;99776.41;;;8.04;76.85
43488;BME280;29078;41.932;25.554;2022-11-30T02:38:32;99773.16;;;8.10;77.23
43488;BME280;29078;41.932;25.554;2022-11-30T02:40:58;99709.47;;;7.64;77.05
43488;BME280;29078;41.932;25.554;2022-11-30T02:43:25;99853.78;;;8.45;77.25
43488;BME280;29078;41.932;25.554;2022-11-30T02:46:22;99831.09;;;8.44;77.26
43488;BME280;29078;41.932;25.554;2022-11-30T02:48:57;99804.22;;;8.15;76.59
43488;BME280;29078;41.932;25.554;2022-11-30T02:51:28;99808.75;;;8.22;76.93
43488;BME280;29078;41.932;25.554;2022-11-30T02:53:55;99697.53;;;7.44;76.69
43488;BME280;29078;41.932;25.554;2022-11-30T02:56:20;99853.75;;;8.37;77.21
43488;BME280;29078;41.932;25.554;2022-11-30T02:58:46;99804.19;;;8.07;76.80
43488;BME280;29078;41.932;25.554;2022-11-30T03:01:12;99751.78;;;7.79;76.87
43488;BME280;29078;41.932;25.554;2022-11-30T03:03:37;99482.44;;;6.12;76.77
43488;BME280;29078;41.932;25.554;2022-11-30T03:06:03;99793.72;;;7.89;76.83
43488;BME280;29078;41.932;25.554;2022-11-30T03:08:28;99744.31;;;7.67;77.15
43488;BME280;29078;41.932;25.554;2022-11-30T03:10:54;99822.66;;;8.15;76.69
43488;BME280;29078;41.932;25.554;2022-11-30T03:13:19;99727.81;;;7.56;76.73
43488;BME280;29078;41.932;25.554;2022-11-30T03:15:45;99746.47;;;7.71;76.84
43488;BME280;29078;41.932;25.554;2022-11-30T03:18:10;99803.84;;;8.02;76.92
43488;BME280;29078;41.932;25.554;2022-11-30T03:20:40;99773.63;;;7.80;76.51
43488;BME280;29078;41.932;25.554;2022-11-30T03:23:06;99854.41;;;8.39;76.78
43488;BME280;29078;41.932;25.554;2022-11-30T03:25:32;99821.72;;;7.98;76.65
43488;BME280;29078;41.932;25.554;2022-11-30T03:27:59;99828.38;;;8.10;76.80
43488;BME280;29078;41.932;25.554;2022-11-30T03:30:25;99826.25;;;8.14;76.38
43488;BME280;29078;41.932;25.554;2022-11-30T03:32:50;99801.50;;;7.98;76.99
43488;BME280;29078;41.932;25.554;2022-11-30T03:35:16;99795.22;;;7.91;76.64
43488;BME280;29078;41.932;25.554;2022-11-30T03:37:42;99763.00;;;7.63;76.87
43488;BME280;29078;41.932;25.554;2022-11-30T03:40:08;99810.06;;;8.01;76.56
43488;BME280;29078;41.932;25.554;2022-11-30T03:42:33;99829.03;;;8.12;76.33
43488;BME280;29078;41.932;25.554;2022-11-30T03:44:58;99812.75;;;8.09;76.18
43488;BME280;29078;41.932;25.554;2022-11-30T03:47:24;99785.69;;;7.90;76.59
43488;BME280;29078;41.932;25.554;2022-11-30T03:49:49;99801.19;;;8.02;76.69
43488;BME280;29078;41.932;25.554;2022-11-30T03:52:15;99886.81;;;8.22;76.31
43488;BME280;29078;41.932;25.554;2022-11-30T03:54:40;99719.94;;;7.39;76.23
43488;BME280;29078;41.932;25.554;2022-11-30T03:57:05;99719.50;;;7.43;76.55
43488;BME280;29078;41.932;25.554;2022-11-30T03:59:31;99715.50;;;7.39;76.30
43488;BME280;29078;41.932;25.554;2022-11-30T04:01:56;99729.94;;;7.53;76.18
43488;BME280;29078;41.932;25.554;2022-11-30T04:04:22;99827.03;;;8.06;76.50
43488;BME280;29078;41.932;25.554;2022-11-30T04:06:47;99772.28;;;7.76;76.07
43488;BME280;29078;41.932;25.554;2022-11-30T04:09:12;99714.84;;;7.37;75.80
43488;BME280;29078;41.932;25.554;2022-11-30T04:11:38;99777.22;;;7.53;76.24
43488;BME280;29078;41.932;25.554;2022-11-30T04:14:03;99835.44;;;8.10;76.51
43488;BME280;29078;41.932;25.554;2022-11-30T04:16:29;99763.53;;;7.67;76.31
43488;BME280;29078;41.932;25.554;2022-11-30T04:18:54;99743.44;;;7.58;76.21
43488;BME280;29078;41.932;25.554;2022-11-30T04:21:19;99812.66;;;7.92;76.59
43488;BME280;29078;41.932;25.554;2022-11-30T04:23:45;99887.50;;;8.24;76.47
43488;BME280;29078;41.932;25.554;2022-11-30T04:26:12;99843.75;;;7.97;76.14
43488;BME280;29078;41.932;25.554;2022-11-30T04:28:37;99783.72;;;7.67;76.11
43488;BME280;29078;41.932;25.554;2022-11-30T04:31:03;99813.06;;;7.80;76.14
43488;BME280;29078;41.932;25.554;2022-11-30T04:33:29;99885.50;;;8.18;75.97
43488;BME280;29078;41.932;25.554;2022-11-30T04:35:57;99739.25;;;7.29;76.05
43488;BME280;29078;41.932;25.554;2022-11-30T04:38:24;99874.09;;;8.17;75.72
43488;BME280;29078;41.932;25.554;2022-11-30T04:40:49;99835.97;;;7.70;75.82
43488;BME280;29078;41.932;25.554;2022-11-30T04:43:15;99827.94;;;7.71;75.82
43488;BME280;29078;41.932;25.554;2022-11-30T04:45:42;99882.72;;;8.19;76.09
43488;BME280;29078;41.932;25.554;2022-11-30T04:48:08;99886.69;;;8.23;76.20
43488;BME280;29078;41.932;25.554;2022-11-30T04:50:34;99874.34;;;8.24;75.76
43488;BME280;29078;41.932;25.554;2022-11-30T04:52:59;99753.13;;;7.40;75.69
43488;BME280;29078;41.932;25.554;2022-11-30T04:55:25;99807.00;;;7.61;76.14
43488;BME280;29078;41.932;25.554;2022-11-30T04:57:50;99829.66;;;7.80;75.96
43488;BME280;29078;41.932;25.554;2022-11-30T05:00:17;99886.31;;;8.18;76.14
43488;BME280;29078;41.932;25.554;2022-11-30T05:02:43;99906.22;;;8.21;75.86
43488;BME280;29078;41.932;25.554;2022-11-30T05:05:09;99887.25;;;8.17;75.47
43488;BME280;29078;41.932;25.554;2022-11-30T05:07:35;99830.41;;;7.73;75.78
43488;BME280;29078;41.932;25.554;2022-11-30T05:10:00;99828.91;;;7.70;75.81
43488;BME280;29078;41.932;25.554;2022-11-30T05:12:26;99866.88;;;7.93;75.51
43488;BME280;29078;41.932;25.554;2022-11-30T05:14:51;99863.78;;;7.98;75.94
43488;BME280;29078;41.932;25.554;2022-11-30T05:17:16;99780.75;;;7.26;75.54
43488;BME280;29078;41.932;25.554;2022-11-30T05:19:42;99838.66;;;7.78;75.09
43488;BME280;29078;41.932;25.554;2022-11-30T05:22:07;99885.34;;;8.02;75.19
43488;BME280;29078;41.932;25.554;2022-11-30T05:24:33;99812.13;;;7.63;75.04
43488;BME280;29078;41.932;25.554;2022-11-30T05:26:58;99931.91;;;8.27;74.94
43488;BME280;29078;41.932;25.554;2022-11-30T05:29:23;99782.25;;;7.46;74.83
43488;BME280;29078;41.932;25.554;2022-11-30T05:31:49;99644.19;;;6.47;74.79
43488;BME280;29078;41.932;25.554;2022-11-30T05:34:15;99883.19;;;7.79;75.22
43488;BME280;29078;41.932;25.554;2022-11-30T05:36:40;99844.16;;;7.67;75.13
43488;BME280;29078;41.932;25.554;2022-11-30T05:39:06;99802.16;;;7.49;75.15
43488;BME280;29078;41.932;25.554;2022-11-30T05:41:31;99766.72;;;7.35;74.85
43488;BME280;29078;41.932;25.554;2022-11-30T05:43:56;99828.69;;;7.63;74.96
43488;BME280;29078;41.932;25.554;2022-11-30T05:46:22;99920.41;;;8.28;74.91
43488;BME280;29078;41.932;25.554;2022-11-30T05:48:48;99824.13;;;7.65;74.43
43488;BME280;29078;41.932;25.554;2022-11-30T05:51:16;99892.56;;;8.00;74.72
43488;BME280;29078;41.932;25.554;2022-11-30T05:53:46;99936.50;;;8.25;74.49
43488;BME280;29078;41.932;25.554;2022-11-30T05:56:19;99823.22;;;7.57;74.14
43488;BME280;29078;41.932;25.554;2022-11-30T05:58:45;99942.75;;;8.24;74.45
43488;BME280;29078;41.932;25.554;2022-11-30T06:01:19;99829.63;;;7.54;74.49
43488;BME280;29078;41.932;25.554;2022-11-30T06:03:44;99840.66;;;7.58;74.24
43488;BME280;29078;41.932;25.554;2022-11-30T06:06:10;99925.38;;;8.13;74.35
43488;BME280;29078;41.932;25.554;2022-11-30T06:08:35;99905.03;;;7.97;74.12
43488;BME280;29078;41.932;25.554;2022-11-30T06:11:01;99814.59;;;7.47;74.11
43488;BME280;29078;41.932;25.554;2022-11-30T06:13:27;99838.38;;;7.63;74.41
43488;BME280;29078;41.932;25.554;2022-11-30T06:15:53;99938.00;;;8.27;74.06
43488;BME280;29078;41.932;25.554;2022-11-30T06:18:18;99852.88;;;7.49;74.13
43488;BME280;29078;41.932;25.554;2022-11-30T06:20:45;99847.56;;;7.59;74.01
43488;BME280;29078;41.932;25.554;2022-11-30T06:23:10;99922.38;;;8.08;74.26
43488;BME280;29078;41.932;25.554;2022-11-30T06:25:35;99836.16;;;7.50;73.69
43488;BME280;29078;41.932;25.554;2022-11-30T06:28:01;99804.53;;;7.42;74.10
43488;BME280;29078;41.932;25.554;2022-11-30T06:30:26;99831.72;;;7.51;73.89
43488;BME280;29078;41.932;25.554;2022-11-30T06:32:52;99856.94;;;7.61;74.14
43488;BME280;29078;41.932;25.554;2022-11-30T06:35:17;99992.63;;;8.16;73.75
43488;BME280;29078;41.932;25.554;2022-11-30T06:37:43;99932.97;;;7.98;73.93
43488;BME280;29078;41.932;25.554;2022-11-30T06:40:11;99903.03;;;7.74;73.93
43488;BME280;29078;41.932;25.554;2022-11-30T06:42:37;99863.69;;;7.46;73.39
43488;BME280;29078;41.932;25.554;2022-11-30T06:45:04;99858.44;;;7.46;73.66
43488;BME280;29078;41.932;25.554;2022-11-30T06:47:30;99961.06;;;7.98;73.42
43488;BME280;29078;41.932;25.554;2022-11-30T06:49:56;99932.25;;;7.88;74.04
43488;BME280;29078;41.932;25.554;2022-11-30T06:52:21;99892.06;;;7.60;73.71
43488;BME280;29078;41.932;25.554;2022-11-30T06:54:47;99843.56;;;7.37;73.64
43488;BME280;29078;41.932;25.554;2022-11-30T06:57:12;99900.03;;;7.69;73.95
43488;BME280;29078;41.932;25.554;2022-11-30T06:59:38;99757.47;;;6.78;73.68
43488;BME280;29078;41.932;25.554;2022-11-30T07:02:12;99974.81;;;8.10;73.83
43488;BME280;29078;41.932;25.554;2022-11-30T07:04:37;99742.75;;;6.67;73.82
43488;BME280;29078;41.932;25.554;2022-11-30T07:07:03;99971.34;;;8.09;73.95
43488;BME280;29078;41.932;25.554;2022-11-30T07:09:29;99834.53;;;7.22;73.66
43488;BME280;29078;41.932;25.554;2022-11-30T07:11:56;99933.00;;;7.81;74.31
43488;BME280;29078;41.932;25.554;2022-11-30T07:14:21;99963.16;;;8.12;74.08
43488;BME280;29078;41.932;25.554;2022-11-30T07:16:47;99925.63;;;7.84;74.14
43488;BME280;29078;41.932;25.554;2022-11-30T07:19:12;99962.13;;;8.05;74.10
43488;BME280;29078;41.932;25.554;2022-11-30T07:21:38;99878.53;;;7.38;73.76
43488;BME280;29078;41.932;25.554;2022-11-30T07:24:03;99874.22;;;7.46;73.73
43488;BME280;29078;41.932;25.554;2022-11-30T07:26:47;99943.94;;;7.94;74.08
43488;BME280;29078;41.932;25.554;2022-11-30T07:29:13;99852.41;;;7.36;74.05
43488;BME280;29078;41.932;25.554;2022-11-30T07:31:38;99705.19;;;6.49;74.00
43488;BME280;29078;41.932;25.554;2022-11-30T07:34:06;99905.13;;;7.70;74.00
43488;BME280;29078;41.932;25.554;2022-11-30T07:36:33;99975.66;;;8.10;73.71
43488;BME280;29078;41.932;25.554;2022-11-30T07:38:58;99859.47;;;7.36;73.83
43488;BME280;29078;41.932;25.554;2022-11-30T07:41:24;99953.19;;;7.98;73.76
43488;BME280;29078;41.932;25.554;2022-11-30T07:43:50;99859.84;;;7.41;73.83
43488;BME280;29078;41.932;25.554;2022-11-30T07:46:16;99959.34;;;7.89;73.41
43488;BME280;29078;41.932;25.554;2022-11-30T07:48:42;99993.59;;;8.15;73.73
43488;BME280;29078;41.932;25.554;2022-11-30T07:51:14;99991.13;;;8.13;73.29
43488;BME280;29078;41.932;25.554;2022-11-30T07:53:40;99992.31;;;8.01;73.53
43488;BME280;29078;41.932;25.554;2022-11-30T07:56:11;99991.56;;;8.09;73.37
43488;BME280;29078;41.932;25.554;2022-11-30T07:58:37;99992.25;;;8.11;73.32
43488;BME280;29078;41.932;25.554;2022-11-30T08:01:04;99996.38;;;8.13;73.61
43488;BME280;29078;41.932;25.554;2022-11-30T08:03:30;99980.75;;;7.94;73.36
43488;BME280;29078;41.932;25.554;2022-11-30T08:06:04;99994.44;;;8.15;73.15
43488;BME280;29078;41.932;25.554;2022-11-30T08:08:33;99974.53;;;7.95;73.63
43488;BME280;29078;41.932;25.554;2022-11-30T08:10:59;100003.53;;;8.21;73.16
43488;BME280;29078;41.932;25.554;2022-11-30T08:13:25;99971.44;;;8.00;73.10
43488;BME280;29078;41.932;25.554;2022-11-30T08:15:51;99827.19;;;7.08;73.25
43488;BME280;29078;41.932;25.554;2022-11-30T08:18:17;99920.53;;;7.65;73.22
43488;BME280;29078;41.932;25.554;2022-11-30T08:20:42;99897.09;;;7.54;73.58
43488;BME280;29078;41.932;25.554;2022-11-30T08:23:08;99870.78;;;7.36;73.57
43488;BME280;29078;41.932;25.554;2022-11-30T08:25:34;100001.22;;;8.18;73.50
43488;BME280;29078;41.932;25.554;2022-11-30T08:27:59;99989.03;;;7.99;73.12
43488;BME280;29078;41.932;25.554;2022-11-30T08:30:25;99854.88;;;7.20;73.08
43488;BME280;29078;41.932;25.554;2022-11-30T08:32:50;99954.16;;;7.79;73.20
43488;BME280;29078;41.932;25.554;2022-11-30T08:35:16;99942.75;;;7.71;73.18
43488;BME280;29078;41.932;25.554;2022-11-30T08:37:41;99962.22;;;7.78;73.06
43488;BME280;29078;41.932;25.554;2022-11-30T08:40:07;99899.88;;;7.52;72.86
43488;BME280;29078;41.932;25.554;2022-11-30T08:42:32;99975.72;;;8.01;73.03
43488;BME280;29078;41.932;25.554;2022-11-30T08:44:58;100005.78;;;8.16;72.89
43488;BME280;29078;41.932;25.554;2022-11-30T08:47:23;99854.13;;;7.27;73.00
43488;BME280;29078;41.932;25.554;2022-11-30T08:49:49;99907.13;;;7.41;72.47
43488;BME280;29078;41.932;25.554;2022-11-30T08:52:14;99940.19;;;7.79;72.86
43488;BME280;29078;41.932;25.554;2022-11-30T08:54:44;99950.78;;;7.87;73.04
43488;BME280;29078;41.932;25.554;2022-11-30T08:57:10;99726.84;;;6.51;72.55
43488;BME280;29078;41.932;25.554;2022-11-30T08:59:35;99929.69;;;7.79;73.25
43488;BME280;29078;41.932;25.554;2022-11-30T09:02:01;99851.72;;;7.34;73.13
43488;BME280;29078;41.932;25.554;2022-11-30T09:04:26;99886.91;;;7.51;72.97
43488;BME280;29078;41.932;25.554;2022-11-30T09:06:52;99923.91;;;7.75;73.22
43488;BME280;29078;41.932;25.554;2022-11-30T09:09:18;99955.28;;;7.94;73.09
43488;BME280;29078;41.932;25.554;2022-11-30T09:11:43;99905.88;;;7.62;73.07
43488;BME280;29078;41.932;25.554;2022-11-30T09:14:08;99868.19;;;7.54;73.26
43488;BME280;29078;41.932;25.554;2022-11-30T09:16:34;99956.09;;;8.13;72.84
43488;BME280;29078;41.932;25.554;2022-11-30T09:19:00;99956.41;;;8.10;73.05
43488;BME280;29078;41.932;25.554;2022-11-30T09:21:26;99866.41;;;7.54;73.11
43488;BME280;29078;41.932;25.554;2022-11-30T09:23:54;99951.97;;;8.10;73.24
43488;BME280;29078;41.932;25.554;2022-11-30T09:26:20;99960.00;;;8.09;73.73
43488;BME280;29078;41.932;25.554;2022-11-30T09:28:47;99840.25;;;7.35;73.12
43488;BME280;29078;41.932;25.554;2022-11-30T09:31:23;99943.19;;;8.02;73.63
43488;BME280;29078;41.932;25.554;2022-11-30T09:33:50;99923.44;;;7.80;73.28
43488;BME280;29078;41.932;25.554;2022-11-30T09:36:18;99947.91;;;8.16;73.44
43488;BME280;29078;41.932;25.554;2022-11-30T09:38:44;99959.25;;;8.16;73.57
43488;BME280;29078;41.932;25.554;2022-11-30T09:46:38;99857.91;;;7.60;73.00
43488;BME280;29078;41.932;25.554;2022-11-30T09:49:21;99740.41;;;6.91;72.86
43488;BME280;29078;41.932;25.554;2022-11-30T09:51:50;99925.97;;;8.07;72.94
43488;BME280;29078;41.932;25.554;2022-11-30T09:54:39;99954.25;;;8.23;73.08
43488;BME280;29078;41.932;25.554;2022-11-30T09:59:45;99879.91;;;7.77;73.28
43488;BME280;29078;41.932;25.554;2022-11-30T10:02:14;99836.75;;;7.62;73.24
43488;BME280;29078;41.932;25.554;2022-11-30T10:04:41;99873.28;;;7.91;73.08
43488;BME280;29078;41.932;25.554;2022-11-30T10:10:38;99946.03;;;8.44;72.87
43488;BME280;29078;41.932;25.554;2022-11-30T10:16:41;99952.47;;;8.49;72.52
43488;BME280;29078;41.932;25.554;2022-11-30T10:25:20;99834.38;;;7.77;72.23
43488;BME280;29078;41.932;25.554;2022-11-30T10:28:17;99949.69;;;8.51;72.17
43488;BME280;29078;41.932;25.554;2022-11-30T10:30:46;99945.38;;;8.42;72.46
43488;BME280;29078;41.932;25.554;2022-11-30T10:33:19;99949.53;;;8.52;72.65
43488;BME280;29078;41.932;25.554;2022-11-30T10:35:53;99908.69;;;8.22;72.69
43488;BME280;29078;41.932;25.554;2022-11-30T10:38:24;99815.25;;;7.67;72.69
43488;BME280;29078;41.932;25.554;2022-11-30T10:41:00;99913.97;;;8.22;72.23
43488;BME280;29078;41.932;25.554;2022-11-30T10:45:57;99904.16;;;8.33;72.08
43488;BME280;29078;41.932;25.554;2022-11-30T10:48:54;99904.25;;;8.23;72.17
43488;BME280;29078;41.932;25.554;2022-11-30T10:51:23;99893.28;;;8.27;71.90
43488;BME280;29078;41.932;25.554;2022-11-30T10:53:49;99914.16;;;8.47;71.81
43488;BME280;29078;41.932;25.554;2022-11-30T10:56:15;99936.22;;;8.54;71.84
43488;BME280;29078;41.932;25.554;2022-11-30T11:04:17;99950.38;;;8.53;72.10
43488;BME280;29078;41.932;25.554;2022-11-30T11:06:55;99940.81;;;8.52;72.11
43488;BME280;29078;41.932;25.554;2022-11-30T11:12:25;99944.94;;;8.54;71.88
43488;BME280;29078;41.932;25.554;2022-11-30T11:15:16;99948.72;;;8.52;72.04
43488;BME280;29078;41.932;25.554;2022-11-30T11:17:42;99894.13;;;8.10;72.39
43488;BME280;29078;41.932;25.554;2022-11-30T11:20:33;99953.00;;;8.53;72.17
43488;BME280;29078;41.932;25.554;2022-11-30T11:23:00;99864.56;;;7.90;72.10
43488;BME280;29078;41.932;25.554;2022-11-30T11:25:32;99901.16;;;8.27;71.88
43488;BME280;29078;41.932;25.554;2022-11-30T11:28:23;99907.72;;;8.23;72.40
43488;BME280;29078;41.932;25.554;2022-11-30T11:30:51;99894.13;;;8.10;72.71
43488;BME280;29078;41.932;25.554;2022-11-30T11:33:28;99937.97;;;8.45;72.75
43488;BME280;29078;41.932;25.554;2022-11-30T11:38:41;99935.56;;;8.52;72.80
43488;BME280;29078;41.932;25.554;2022-11-30T11:41:20;99936.38;;;8.52;72.73
43488;BME280;29078;41.932;25.554;2022-11-30T11:46:31;99929.16;;;8.54;72.91
43488;BME280;29078;41.932;25.554;2022-11-30T11:49:03;99911.47;;;8.39;73.05
43488;BME280;29078;41.932;25.554;2022-11-30T11:51:37;99932.25;;;8.50;73.06
43488;BME280;29078;41.932;25.554;2022-11-30T11:54:26;99866.84;;;8.11;72.90
43488;BME280;29078;41.932;25.554;2022-11-30T11:56:56;99903.75;;;8.19;72.81
43488;BME280;29078;41.932;25.554;2022-11-30T12:06:58;99901.00;;;8.29;73.11
43488;BME280;29078;41.932;25.554;2022-11-30T12:09:54;99898.91;;;8.33;72.76
43488;BME280;29078;41.932;25.554;2022-11-30T12:12:21;99842.53;;;7.91;73.00
43488;BME280;29078;41.932;25.554;2022-11-30T12:14:46;99832.75;;;7.76;72.88
43488;BME280;29078;41.932;25.554;2022-11-30T12:25:28;99941.19;;;8.57;72.83
43488;BME280;29078;41.932;25.554;2022-11-30T12:36:37;99937.47;;;8.42;72.77
43488;BME280;29078;41.932;25.554;2022-11-30T12:39:37;99947.75;;;8.53;72.61
43488;BME280;29078;41.932;25.554;2022-11-30T12:42:14;99932.72;;;8.45;73.02
43488;BME280;29078;41.932;25.554;2022-11-30T12:50:05;99946.75;;;8.54;73.02
43488;BME280;29078;41.932;25.554;2022-11-30T12:52:49;99936.13;;;8.38;72.91
43488;BME280;29078;41.932;25.554;2022-11-30T12:55:37;99944.44;;;8.51;73.44
43488;BME280;29078;41.932;25.554;2022-11-30T12:58:18;99820.06;;;7.71;73.56
43488;BME280;29078;41.932;25.554;2022-11-30T13:01:20;99951.50;;;8.50;73.59
43488;BME280;29078;41.932;25.554;2022-11-30T13:07:10;99839.50;;;7.78;74.23
43488;BME280;29078;41.932;25.554;2022-11-30T13:09:49;99856.81;;;7.89;73.99
43488;BME280;29078;41.932;25.554;2022-11-30T13:12:23;99815.41;;;7.65;73.69
43488;BME280;29078;41.932;25.554;2022-11-30T13:14:55;99812.41;;;7.60;74.12
43488;BME280;29078;41.932;25.554;2022-11-30T13:17:23;99865.38;;;7.91;73.74
43488;BME280;29078;41.932;25.554;2022-11-30T13:22:25;99971.13;;;8.56;73.94
43488;BME280;29078;41.932;25.554;2022-11-30T13:25:06;99966.84;;;8.55;73.92
43488;BME280;29078;41.932;25.554;2022-11-30T13:27:45;99888.44;;;7.97;73.93
43488;BME280;29078;41.932;25.554;2022-11-30T13:30:33;99895.16;;;8.17;73.79
43488;BME280;29078;41.932;25.554;2022-11-30T13:36:03;99942.22;;;8.38;73.99
43488;BME280;29078;41.932;25.554;2022-11-30T13:38:30;99925.22;;;8.33;73.32
43488;BME280;29078;41.932;25.554;2022-11-30T13:40:58;99967.50;;;8.57;73.45
43488;BME280;29078;41.932;25.554;2022-11-30T13:43:28;99839.34;;;7.80;73.82
43488;BME280;29078;41.932;25.554;2022-11-30T13:46:03;99901.31;;;8.26;73.71
43488;BME280;29078;41.932;25.554;2022-11-30T13:48:33;99901.63;;;8.23;73.50
43488;BME280;29078;41.932;25.554;2022-11-30T13:51:02;99949.34;;;8.46;73.66
43488;BME280;29078;41.932;25.554;2022-11-30T13:53:31;99868.75;;;8.01;73.47
43488;BME280;29078;41.932;25.554;2022-11-30T14:01:49;99971.63;;;8.59;73.02
43488;BME280;29078;41.932;25.554;2022-11-30T14:06:51;99966.63;;;8.48;73.26
43488;BME280;29078;41.932;25.554;2022-11-30T14:14:57;99944.69;;;8.40;73.48
43488;BME280;29078;41.932;25.554;2022-11-30T14:17:26;99879.88;;;7.95;73.47
43488;BME280;29078;41.932;25.554;2022-11-30T14:19:57;99964.81;;;8.49;73.70
43488;BME280;29078;41.932;25.554;2022-11-30T14:22:24;99881.53;;;7.96;73.58
43488;BME280;29078;41.932;25.554;2022-11-30T14:24:50;99873.78;;;7.94;73.55
43488;BME280;29078;41.932;25.554;2022-11-30T14:27:22;99926.66;;;8.27;73.12
43488;BME280;29078;41.932;25.554;2022-11-30T14:29:49;99930.09;;;8.27;73.60
43488;BME280;29078;41.932;25.554;2022-11-30T14:32:41;99959.50;;;8.41;73.52
43488;BME280;29078;41.932;25.554;2022-11-30T14:35:17;99953.41;;;8.40;73.56
43488;BME280;29078;41.932;25.554;2022-11-30T14:37:55;99796.38;;;7.45;73.46
43488;BME280;29078;41.932;25.554;2022-11-30T14:40:24;99895.88;;;8.02;73.54
43488;BME280;29078;41.932;25.554;2022-11-30T14:42:55;99948.22;;;8.31;73.14
43488;BME280;29078;41.932;25.554;2022-11-30T14:45:24;99964.00;;;8.48;73.52
43488;BME280;29078;41.932;25.554;2022-11-30T14:47:52;99905.13;;;7.88;73.47
43488;BME280;29078;41.932;25.554;2022-11-30T14:50:24;99918.69;;;8.19;72.98